Terminal Aerodrome Forecast
Issued by NWS Upton, NY

Home | Current Version | Previous Version | Text Only | Print | Product List | Glossary On
Versions: 1 2 3 4 5 6 7 8 9 10 11 12 13 14 15 16 17 18 19 20 21 22 23 24 25 26
000
FTUS41 KOKX 312000 AAA
TAFISP
TAF AMD
KISP 312038Z 3121/0118 04010KT P6SM FEW030 BKN040 OVC060
      TEMPO 3121/0101 -RA
     FM010100 04012KT P6SM -RA OVC025
     FM010600 03016G25KT 5SM -RA BR OVC015
     FM011400 02020G30KT 3SM RA BR OVC010=

USA.gov is the U.S. government's official web portal to all federal, state and local government web resources and services.